Time;durP1;ratioP1;P1;durP2;ratioP2;P2;SDS_P1;SDS_P2;PMS_P1;PMS_P2;Temp;Humidity;BMP_temperature;BMP_pressure;BME280_temperature;BME280_humidity;BME280_pressure;Samples;Min_cycle;Max_cycle;Signal;HPM_P1;HPM_P2
2022/12/17 13:06:49;;;;;;;;;;;18.90;40.30;;;;;;5052358;28;19939;-64
2022/12/17 13:09:24;;;;;;;;;;;18.90;40.30;;;;;;5038204;28;20381;-64
2022/12/17 13:11:53;;;;;;;;;;;18.90;40.30;;;;;;5039983;28;19939;-66
2022/12/17 13:14:22;;;;;;;;;;;18.90;40.30;;;;;;5051618;28;19932;-64
2022/12/17 13:16:52;;;;;;;;;;;18.90;40.30;;;;;;5052731;28;19932;-65
2022/12/17 13:19:20;;;;;;;;;;;18.90;40.30;;;;;;5068242;28;20386;-66
2022/12/17 13:21:47;;;;;;;;;;;18.90;40.30;;;;;;5054650;28;19924;-64
2022/12/17 13:24:22;;;;;;;;;;;18.90;40.30;;;;;;5052731;28;19931;-64
2022/12/17 13:26:49;;;;;;;;;;;18.90;40.30;;;;;;5041830;28;19929;-68
2022/12/17 13:29:24;;;;;;;;;;;18.90;40.30;;;;;;5051772;28;20443;-64
2022/12/17 13:31:54;;;;;;;;;;;18.90;40.30;;;;;;5051857;28;19931;-64
2022/12/17 13:34:24;;;;;;;;;;;18.90;40.30;;;;;;5052420;28;19928;-66
2022/12/17 13:36:52;;;;;;;;;;;18.90;40.30;;;;;;5052000;28;19925;-65
2022/12/17 13:39:23;;;;;;;;;;;18.90;40.30;;;;;;5052265;28;19998;-66
2022/12/17 13:41:51;;;;;;;;;;;19.00;40.40;;;;;;5050228;28;19933;-64
2022/12/17 13:44:20;;;;;;;;;;;18.90;40.30;;;;;;5047998;28;19928;-65
2022/12/17 13:46:48;;;;;;;;;;;18.90;40.40;;;;;;5051111;28;19925;-66
2022/12/17 13:49:18;;;;;;;;;;;18.90;40.40;;;;;;5037159;28;19947;-63
2022/12/17 13:51:45;;;;;;;;;;;18.90;40.40;;;;;;5052442;28;19925;-64
2022/12/17 13:54:13;;;;;;;;;;;19.00;40.60;;;;;;5050423;28;20356;-63
2022/12/17 13:56:40;;;;;;;;;;;18.90;40.60;;;;;;5065032;28;19925;-63
2022/12/17 13:59:07;;;;;;;;;;;19.00;40.70;;;;;;5049499;28;19979;-64
2022/12/17 14:01:33;;;;;;;;;;;19.00;40.70;;;;;;5048055;28;19933;-67
2022/12/17 14:04:01;;;;;;;;;;;19.00;40.70;;;;;;5043615;28;19978;-65
2022/12/17 14:06:32;;;;;;;;;;;19.00;40.70;;;;;;5045843;28;19933;-65
2022/12/17 14:08:58;;;;;;;;;;;19.00;40.80;;;;;;5047712;28;19945;-63
2022/12/17 14:14:11;;;;;;;;;;;19.00;41.00;;;;;;5045851;28;19960;-64
2022/12/17 14:16:38;;;;;;;;;;;19.00;41.10;;;;;;5045178;28;19928;-73
2022/12/17 14:19:05;;;;;;;;;;;19.00;41.30;;;;;;5041971;28;19943;-64
2022/12/17 14:21:33;;;;;;;;;;;19.00;41.50;;;;;;5061563;28;19925;-64
2022/12/17 14:23:59;;;;;;;;;;;19.00;41.60;;;;;;5049232;28;19928;-64
2022/12/17 14:26:26;;;;;;;;;;;19.10;41.80;;;;;;5048164;28;19925;-68
2022/12/17 14:28:53;;;;;;;;;;;19.10;41.90;;;;;;5043381;28;19929;-66
2022/12/17 14:31:21;;;;;;;;;;;19.10;41.90;;;;;;5054067;28;19979;-63
2022/12/17 14:34:00;;;;;;;;;;;19.10;42.00;;;;;;5043782;28;20348;-64
2022/12/17 14:36:27;;;;;;;;;;;19.10;42.00;;;;;;5061531;28;20032;-67
2022/12/17 14:38:55;;;;;;;;;;;19.10;42.10;;;;;;5062674;28;19929;-64
2022/12/17 14:44:06;;;;;;;;;;;19.20;42.30;;;;;;5044901;28;19929;-64
2022/12/17 14:46:33;;;;;;;;;;;19.20;42.30;;;;;;5061893;28;20348;-66
2022/12/17 14:49:00;;;;;;;;;;;19.20;42.30;;;;;;5047613;28;20340;-64
2022/12/17 14:51:28;;;;;;;;;;;19.20;42.30;;;;;;5061743;28;19925;-64
2022/12/17 14:54:06;;;;;;;;;;;19.20;42.40;;;;;;5057173;28;19924;-64
2022/12/17 14:56:33;;;;;;;;;;;19.20;42.30;;;;;;5058620;28;19939;-64
2022/12/17 14:59:01;;;;;;;;;;;19.20;42.40;;;;;;5043642;28;19937;-64
2022/12/17 15:01:28;;;;;;;;;;;19.20;42.40;;;;;;5045783;28;19924;-61
2022/12/17 15:03:55;;;;;;;;;;;19.20;42.30;;;;;;5061419;28;20003;-63
2022/12/17 15:06:22;;;;;;;;;;;19.20;42.40;;;;;;5046401;28;19940;-63
2022/12/17 15:08:49;;;;;;;;;;;19.30;42.40;;;;;;5046936;28;19971;-64
2022/12/17 15:11:18;;;;;;;;;;;19.30;42.40;;;;;;5047945;28;20133;-65
2022/12/17 15:13:45;;;;;;;;;;;19.30;42.40;;;;;;5059713;28;19929;-63
2022/12/17 15:16:12;;;;;;;;;;;19.30;42.40;;;;;;5043038;28;19952;-66
2022/12/17 15:18:39;;;;;;;;;;;19.30;42.40;;;;;;5043018;28;19979;-65
2022/12/17 15:21:05;;;;;;;;;;;19.30;42.40;;;;;;5057672;28;19932;-63
2022/12/17 15:23:32;;;;;;;;;;;19.30;42.40;;;;;;5046650;28;19924;-64
2022/12/17 15:25:59;;;;;;;;;;;19.30;42.40;;;;;;5050598;28;19933;-65
2022/12/17 15:28:27;;;;;;;;;;;19.30;42.40;;;;;;5044656;28;19968;-66
2022/12/17 15:30:54;;;;;;;;;;;19.30;42.40;;;;;;5039786;28;19929;-67
2022/12/17 15:33:21;;;;;;;;;;;19.30;42.40;;;;;;5062449;28;19974;-65
2022/12/17 15:35:47;;;;;;;;;;;19.30;42.40;;;;;;5049349;28;19979;-64
2022/12/17 15:38:14;;;;;;;;;;;19.40;42.50;;;;;;5038630;28;20375;-69
2022/12/17 15:40:41;;;;;;;;;;;19.40;42.50;;;;;;5050445;28;19959;-64
2022/12/17 15:43:10;;;;;;;;;;;19.30;42.40;;;;;;5050312;28;19925;-65
2022/12/17 15:45:38;;;;;;;;;;;19.40;42.50;;;;;;5047371;28;19925;-64
2022/12/17 15:48:05;;;;;;;;;;;19.30;42.40;;;;;;5055580;28;20395;-63
2022/12/17 15:50:32;;;;;;;;;;;19.40;42.40;;;;;;5047454;28;20405;-62
2022/12/17 15:52:59;;;;;;;;;;;19.40;42.40;;;;;;5060194;28;19929;-65
2022/12/17 15:55:26;;;;;;;;;;;19.40;42.40;;;;;;5038703;28;19978;-64
2022/12/17 15:57:53;;;;;;;;;;;19.40;42.40;;;;;;5042874;28;19971;-67
2022/12/17 16:00:19;;;;;;;;;;;19.40;42.40;;;;;;5046710;28;19929;-63
2022/12/17 16:02:48;;;;;;;;;;;19.40;42.40;;;;;;5040648;28;19978;-64
2022/12/17 16:05:15;;;;;;;;;;;19.40;43.00;;;;;;5060908;28;19933;-66
2022/12/17 16:07:42;;;;;;;;;;;19.40;42.40;;;;;;5047902;28;19976;-67
2022/12/17 16:10:09;;;;;;;;;;;19.40;42.40;;;;;;5063415;28;19944;-67
2022/12/17 16:12:36;;;;;;;;;;;19.40;42.40;;;;;;5061004;28;20387;-64
2022/12/17 16:15:03;;;;;;;;;;;19.40;42.40;;;;;;5046339;28;19932;-65
2022/12/17 16:17:30;;;;;;;;;;;19.40;42.40;;;;;;5057961;28;19925;-64
2022/12/17 16:19:59;;;;;;;;;;;19.40;42.40;;;;;;5050702;28;19964;-64
2022/12/17 16:22:26;;;;;;;;;;;19.40;42.40;;;;;;5063845;28;19979;-64
2022/12/17 16:24:52;;;;;;;;;;;19.40;42.40;;;;;;5053542;28;20342;-64
2022/12/17 16:27:19;;;;;;;;;;;19.40;42.40;;;;;;5053333;28;19928;-66
2022/12/17 16:29:46;;;;;;;;;;;19.40;42.40;;;;;;5048153;28;19925;-64
2022/12/17 16:32:13;;;;;;;;;;;19.40;42.30;;;;;;5057448;28;20062;-68
2022/12/17 16:34:40;;;;;;;;;;;19.40;42.40;;;;;;5053316;28;19928;-64
2022/12/17 16:37:08;;;;;;;;;;;19.40;42.30;;;;;;5049841;28;19991;-65
2022/12/17 16:39:35;;;;;;;;;;;19.40;42.30;;;;;;5065003;28;19983;-64
2022/12/17 16:42:02;;;;;;;;;;;19.40;42.30;;;;;;5051728;28;19929;-67
2022/12/17 16:44:28;;;;;;;;;;;19.40;42.30;;;;;;5051616;28;19925;-64
2022/12/17 16:46:55;;;;;;;;;;;19.40;42.30;;;;;;5047279;28;19925;-64
2022/12/17 16:49:22;;;;;;;;;;;19.40;42.30;;;;;;5049645;28;20344;-67
2022/12/17 16:51:52;;;;;;;;;;;19.40;42.90;;;;;;5065052;28;19925;-64
2022/12/17 16:54:21;;;;;;;;;;;19.40;42.20;;;;;;5042171;28;20337;-66
2022/12/17 16:56:47;;;;;;;;;;;19.40;42.20;;;;;;5048630;28;20061;-64
2022/12/17 16:59:14;;;;;;;;;;;19.40;42.20;;;;;;5066146;28;19951;-67
2022/12/17 17:01:43;;;;;;;;;;;19.40;42.20;;;;;;5064034;28;19925;-65
2022/12/17 17:04:10;;;;;;;;;;;19.30;42.10;;;;;;5067801;28;19932;-64
2022/12/17 17:06:38;;;;;;;;;;;19.30;42.10;;;;;;5043890;28;20054;-66
2022/12/17 17:09:04;;;;;;;;;;;19.30;42.10;;;;;;5048848;28;20085;-65
2022/12/17 17:11:32;;;;;;;;;;;19.30;42.10;;;;;;5050929;28;19924;-65
2022/12/17 17:13:59;;;;;;;;;;;19.30;42.10;;;;;;5051900;28;19979;-65
2022/12/17 17:16:26;;;;;;;;;;;19.30;42.10;;;;;;5047832;28;19979;-65
2022/12/17 17:18:53;;;;;;;;;;;19.30;42.10;;;;;;5052575;28;19973;-68
2022/12/17 17:21:24;;;;;;;;;;;19.30;42.10;;;;;;5050821;28;20015;-63
2022/12/17 17:23:52;;;;;;;;;;;19.30;42.10;;;;;;5052871;28;19925;-66
2022/12/17 17:26:19;;;;;;;;;;;19.30;42.00;;;;;;5051752;28;20344;-68
2022/12/17 17:28:47;;;;;;;;;;;19.30;42.00;;;;;;5051075;28;19925;-65
2022/12/17 17:31:14;;;;;;;;;;;19.30;42.00;;;;;;5047877;28;19947;-64
2022/12/17 17:33:42;;;;;;;;;;;19.30;42.00;;;;;;5051036;28;19924;-66
2022/12/17 17:36:09;;;;;;;;;;;19.30;42.00;;;;;;5052254;28;19931;-64
2022/12/17 17:38:36;;;;;;;;;;;19.30;42.10;;;;;;5053576;28;19947;-64
2022/12/17 17:41:03;;;;;;;;;;;19.30;42.00;;;;;;5044488;28;19994;-65
2022/12/17 17:43:30;;;;;;;;;;;19.30;42.00;;;;;;5062323;28;19924;-64
2022/12/17 17:45:59;;;;;;;;;;;19.30;42.00;;;;;;5053160;28;19925;-64
2022/12/17 17:48:26;;;;;;;;;;;19.30;42.00;;;;;;5044554;28;19925;-65
2022/12/17 17:50:57;;;;;;;;;;;19.30;42.10;;;;;;5068405;28;20404;-64
2022/12/17 17:53:23;;;;;;;;;;;19.30;42.10;;;;;;5051748;28;19929;-65
2022/12/17 17:55:50;;;;;;;;;;;19.30;42.10;;;;;;5052748;28;19925;-65
2022/12/17 17:58:17;;;;;;;;;;;19.30;42.10;;;;;;5050567;28;19925;-65
2022/12/17 18:00:43;;;;;;;;;;;19.20;42.00;;;;;;5067192;28;19974;-63
2022/12/17 18:03:11;;;;;;;;;;;19.30;42.10;;;;;;5052000;28;19979;-64
2022/12/17 18:05:39;;;;;;;;;;;19.30;42.70;;;;;;5047988;28;19948;-66
2022/12/17 18:08:07;;;;;;;;;;;19.30;42.10;;;;;;5044999;28;19925;-64
2022/12/17 18:10:33;;;;;;;;;;;19.20;42.00;;;;;;5050664;28;19968;-64
2022/12/17 18:15:46;;;;;;;;;;;19.30;42.10;;;;;;5050695;28;19932;-65
2022/12/17 18:18:14;;;;;;;;;;;19.30;42.10;;;;;;5041233;28;19941;-64
2022/12/17 18:20:41;;;;;;;;;;;19.20;42.10;;;;;;5043038;28;19932;-65
2022/12/17 18:23:09;;;;;;;;;;;19.30;42.20;;;;;;5048581;28;19982;-68
2022/12/17 18:25:35;;;;;;;;;;;19.20;42.00;;;;;;5050207;28;19947;-64
2022/12/17 18:28:02;;;;;;;;;;;19.20;42.10;;;;;;5052028;28;19933;-67
2022/12/17 18:30:41;;;;;;;;;;;19.20;42.10;;;;;;5047028;28;19990;-64
2022/12/17 18:33:07;;;;;;;;;;;19.20;42.10;;;;;;5066252;28;19925;-69
2022/12/17 18:35:35;;;;;;;;;;;19.20;42.10;;;;;;5043939;28;19936;-65
2022/12/17 18:38:04;;;;;;;;;;;19.20;42.10;;;;;;5067481;28;19944;-68
2022/12/17 18:40:31;;;;;;;;;;;19.20;42.10;;;;;;5045215;28;19968;-66
2022/12/17 18:45:50;;;;;;;;;;;19.20;42.20;;;;;;5026559;28;19925;-66
2022/12/17 18:48:17;;;;;;;;;;;19.20;42.20;;;;;;5052386;28;19925;-67
2022/12/17 18:50:45;;;;;;;;;;;19.20;42.20;;;;;;5067655;28;19929;-64
2022/12/17 18:53:12;;;;;;;;;;;19.30;42.40;;;;;;5050554;28;19972;-65
2022/12/17 18:55:39;;;;;;;;;;;19.20;42.30;;;;;;5050209;28;19928;-74
2022/12/17 18:58:06;;;;;;;;;;;19.20;42.40;;;;;;5067665;28;19925;-65
2022/12/17 19:00:33;;;;;;;;;;;19.20;42.40;;;;;;5043244;28;19929;-64
2022/12/17 19:02:59;;;;;;;;;;;19.20;42.50;;;;;;5064080;28;19970;-66
2022/12/17 19:05:26;;;;;;;;;;;19.30;42.60;;;;;;5051108;28;19932;-64
2022/12/17 19:07:54;;;;;;;;;;;19.30;42.60;;;;;;5051278;28;19925;-65
2022/12/17 19:10:21;;;;;;;;;;;19.30;42.60;;;;;;5051825;28;19929;-63
2022/12/17 19:12:48;;;;;;;;;;;19.30;42.70;;;;;;5067111;28;19925;-67
2022/12/17 19:15:15;;;;;;;;;;;19.30;42.60;;;;;;5050399;28;19990;-64
2022/12/17 19:17:41;;;;;;;;;;;19.30;42.70;;;;;;5041446;28;19929;-64
2022/12/17 19:20:09;;;;;;;;;;;19.30;42.70;;;;;;5047534;28;19931;-65
2022/12/17 19:22:36;;;;;;;;;;;19.30;42.70;;;;;;5045348;28;19978;-66
2022/12/17 19:25:04;;;;;;;;;;;19.30;42.70;;;;;;5057047;28;19936;-69
2022/12/17 19:27:31;;;;;;;;;;;19.30;42.80;;;;;;5047138;28;19979;-65
2022/12/17 19:29:58;;;;;;;;;;;19.30;42.90;;;;;;5051384;28;19928;-63
2022/12/17 19:32:28;;;;;;;;;;;19.30;43.00;;;;;;5066268;28;19928;-65
2022/12/17 19:34:54;;;;;;;;;;;19.30;43.10;;;;;;5049957;28;19936;-65
2022/12/17 19:37:21;;;;;;;;;;;19.30;43.20;;;;;;5050152;28;19974;-64
2022/12/17 19:39:51;;;;;;;;;;;19.30;43.30;;;;;;5043599;28;19925;-66
2022/12/17 19:42:26;;;;;;;;;;;19.30;43.40;;;;;;5066760;28;19924;-64
2022/12/17 19:44:53;;;;;;;;;;;19.30;43.40;;;;;;5042219;28;19929;-65
2022/12/17 19:47:20;;;;;;;;;;;19.30;43.40;;;;;;5050658;28;20024;-64
2022/12/17 19:49:47;;;;;;;;;;;19.30;43.50;;;;;;5046074;28;19943;-67
2022/12/17 19:52:14;;;;;;;;;;;19.40;43.50;;;;;;5049678;28;19970;-64
2022/12/17 19:54:40;;;;;;;;;;;19.30;43.50;;;;;;5051389;28;19974;-71
2022/12/17 19:57:07;;;;;;;;;;;19.40;43.60;;;;;;5065842;28;20268;-66
2022/12/17 19:59:36;;;;;;;;;;;19.40;43.60;;;;;;5053374;28;19925;-66
2022/12/17 20:02:02;;;;;;;;;;;19.40;43.60;;;;;;5054246;28;20010;-65
2022/12/17 20:04:29;;;;;;;;;;;19.40;43.60;;;;;;5053719;28;19925;-66
2022/12/17 20:06:57;;;;;;;;;;;19.40;43.60;;;;;;5055730;28;19925;-65
2022/12/17 20:09:24;;;;;;;;;;;19.40;43.60;;;;;;5054196;28;19978;-65
2022/12/17 20:11:51;;;;;;;;;;;19.40;43.60;;;;;;5054672;28;19925;-65
2022/12/17 20:14:19;;;;;;;;;;;19.40;43.60;;;;;;5070266;28;19925;-66
2022/12/17 20:16:48;;;;;;;;;;;19.40;43.60;;;;;;5052772;28;20007;-64
2022/12/17 20:19:16;;;;;;;;;;;19.50;43.80;;;;;;5049553;28;19925;-65
2022/12/17 20:21:43;;;;;;;;;;;19.50;43.70;;;;;;5044464;28;19928;-65
2022/12/17 20:24:11;;;;;;;;;;;19.40;43.60;;;;;;5063928;28;19926;-65
2022/12/17 20:26:37;;;;;;;;;;;19.50;43.70;;;;;;5045925;28;19975;-68
2022/12/17 20:29:04;;;;;;;;;;;19.50;43.70;;;;;;5042291;28;19925;-64
2022/12/17 20:31:31;;;;;;;;;;;19.50;43.70;;;;;;5048643;28;19925;-63
2022/12/17 20:34:00;;;;;;;;;;;19.40;43.60;;;;;;5049381;28;20345;-64
2022/12/17 20:36:27;;;;;;;;;;;19.50;43.70;;;;;;5052759;28;19979;-64
2022/12/17 20:38:54;;;;;;;;;;;19.50;43.70;;;;;;5045945;28;19928;-66
2022/12/17 20:41:21;;;;;;;;;;;19.50;43.70;;;;;;5049915;28;19929;-66
2022/12/17 20:43:48;;;;;;;;;;;19.50;43.70;;;;;;5044319;28;19947;-67
2022/12/17 20:46:15;;;;;;;;;;;19.50;43.70;;;;;;5043024;28;19952;-64
2022/12/17 20:48:42;;;;;;;;;;;19.50;43.70;;;;;;5062858;28;20298;-65
2022/12/17 20:51:10;;;;;;;;;;;19.50;44.30;;;;;;5052428;28;19978;-64
2022/12/17 20:53:38;;;;;;;;;;;19.50;43.70;;;;;;5042328;28;19978;-64
2022/12/17 20:56:05;;;;;;;;;;;19.50;43.70;;;;;;5043411;28;19928;-71
2022/12/17 20:58:32;;;;;;;;;;;19.50;43.70;;;;;;5048819;28;19929;-70
2022/12/17 21:01:02;;;;;;;;;;;19.50;43.70;;;;;;5045323;28;19924;-63
2022/12/17 21:03:31;;;;;;;;;;;19.50;43.70;;;;;;5061832;28;19955;-65
2022/12/17 21:06:03;;;;;;;;;;;19.50;43.70;;;;;;5034893;28;19952;-65
2022/12/17 21:08:31;;;;;;;;;;;19.50;43.60;;;;;;5049581;28;19925;-65
2022/12/17 21:10:58;;;;;;;;;;;19.50;43.70;;;;;;5039912;28;19994;-65
2022/12/17 21:13:30;;;;;;;;;;;19.60;43.70;;;;;;5049145;28;19944;-70
2022/12/17 21:15:57;;;;;;;;;;;19.50;43.60;;;;;;5047900;28;19925;-66
2022/12/17 21:18:27;;;;;;;;;;;19.50;43.70;;;;;;5045017;28;19931;-67
2022/12/17 21:20:54;;;;;;;;;;;19.60;43.70;;;;;;5045664;28;19976;-66
2022/12/17 21:23:21;;;;;;;;;;;19.60;43.70;;;;;;5048224;28;19928;-68
2022/12/17 21:25:50;;;;;;;;;;;19.50;43.60;;;;;;5046079;28;19926;-64
2022/12/17 21:28:17;;;;;;;;;;;19.60;43.70;;;;;;5060862;28;19990;-67
2022/12/17 21:30:45;;;;;;;;;;;19.60;43.70;;;;;;5057965;28;20443;-63
2022/12/17 21:33:12;;;;;;;;;;;19.60;43.70;;;;;;5046046;28;19964;-66
2022/12/17 21:35:39;;;;;;;;;;;19.60;43.70;;;;;;5064320;28;19924;-65
2022/12/17 21:38:06;;;;;;;;;;;19.60;43.70;;;;;;5063973;28;19936;-66
2022/12/17 21:40:34;;;;;;;;;;;19.60;43.70;;;;;;5045491;28;19971;-65
2022/12/17 21:43:02;;;;;;;;;;;19.60;44.20;;;;;;5064136;28;19929;-65
2022/12/17 21:45:34;;;;;;;;;;;19.60;43.60;;;;;;5040978;28;19944;-70
2022/12/17 21:48:00;;;;;;;;;;;19.60;43.60;;;;;;5044945;28;19925;-65
2022/12/17 21:50:27;;;;;;;;;;;19.60;43.60;;;;;;5060225;28;19975;-65
2022/12/17 21:52:54;;;;;;;;;;;19.70;43.70;;;;;;5055835;28;19929;-66
2022/12/17 21:55:20;;;;;;;;;;;19.60;43.50;;;;;;5045120;28;19966;-66
2022/12/17 21:57:47;;;;;;;;;;;19.70;43.60;;;;;;5041446;28;19925;-66
2022/12/17 22:00:16;;;;;;;;;;;19.70;43.60;;;;;;5042596;28;19925;-74
2022/12/17 22:02:43;;;;;;;;;;;19.70;43.60;;;;;;5037756;28;20342;-66
2022/12/17 22:05:10;;;;;;;;;;;19.60;43.50;;;;;;5038193;28;19971;-68
2022/12/17 22:07:36;;;;;;;;;;;19.60;43.50;;;;;;5060630;28;19935;-66
2022/12/17 22:10:03;;;;;;;;;;;19.70;43.60;;;;;;5045380;28;19994;-67
2022/12/17 22:15:15;;;;;;;;;;;19.70;47.30;;;;;;5051407;28;19925;-63
2022/12/17 22:17:42;;;;;;;;;;;19.70;46.40;;;;;;5057265;28;19924;-64
2022/12/17 22:20:09;;;;;;;;;;;19.70;46.50;;;;;;5050951;28;20025;-66
2022/12/17 22:22:36;;;;;;;;;;;19.70;45.50;;;;;;5067721;28;20333;-64
2022/12/17 22:25:03;;;;;;;;;;;19.70;44.90;;;;;;5049313;28;20015;-65
2022/12/17 22:27:30;;;;;;;;;;;19.60;44.30;;;;;;5044717;28;20283;-66
2022/12/17 22:33:02;;;;;;;;;;;19.60;43.80;;;;;;5009325;28;19929;-64
2022/12/17 22:35:32;;;;;;;;;;;19.60;43.70;;;;;;5050646;28;19940;-64
2022/12/17 22:37:59;;;;;;;;;;;19.60;43.70;;;;;;5047318;28;20585;-66
2022/12/17 22:40:25;;;;;;;;;;;19.60;43.70;;;;;;5038645;28;20376;-66
2022/12/17 22:45:37;;;;;;;;;;;19.50;43.70;;;;;;5039771;28;19943;-65
2022/12/17 22:48:06;;;;;;;;;;;19.60;44.20;;;;;;5043657;28;19925;-64
2022/12/17 22:50:32;;;;;;;;;;;19.60;46.00;;;;;;5048952;28;19937;-65
2022/12/17 22:52:59;;;;;;;;;;;19.50;49.30;;;;;;5043881;28;19926;-64
2022/12/17 22:55:26;;;;;;;;;;;19.50;45.60;;;;;;5038416;28;19929;-64
2022/12/17 22:57:53;;;;;;;;;;;19.50;44.80;;;;;;5056096;28;19952;-66
2022/12/17 23:00:21;;;;;;;;;;;19.50;43.80;;;;;;5057892;28;20355;-65
2022/12/17 23:02:47;;;;;;;;;;;19.50;43.60;;;;;;5054315;28;20424;-66
2022/12/17 23:05:18;;;;;;;;;;;19.50;43.50;;;;;;5039695;28;19983;-65
2022/12/17 23:07:45;;;;;;;;;;;19.50;43.40;;;;;;5051570;28;20509;-66
2022/12/17 23:10:14;;;;;;;;;;;19.40;43.30;;;;;;5037789;28;19971;-64
2022/12/17 23:12:54;;;;;;;;;;;19.50;43.30;;;;;;5049850;28;19975;-64
2022/12/17 23:15:30;;;;;;;;;;;19.50;43.20;;;;;;5054593;28;19931;-64
2022/12/17 23:17:57;;;;;;;;;;;19.50;43.30;;;;;;5041753;28;19933;-65
2022/12/17 23:20:29;;;;;;;;;;;19.50;43.20;;;;;;5059610;28;20344;-66
2022/12/17 23:22:55;;;;;;;;;;;19.40;43.20;;;;;;5054074;28;19929;-65
2022/12/17 23:25:22;;;;;;;;;;;19.40;43.10;;;;;;5041289;28;19971;-66
2022/12/17 23:27:49;;;;;;;;;;;19.40;43.10;;;;;;5064072;28;19928;-65
2022/12/17 23:30:16;;;;;;;;;;;19.40;43.20;;;;;;5043292;28;19983;-65
2022/12/17 23:32:43;;;;;;;;;;;19.40;43.10;;;;;;5047162;28;19926;-67
2022/12/17 23:35:11;;;;;;;;;;;19.40;43.10;;;;;;5053678;28;19925;-65
2022/12/17 23:37:41;;;;;;;;;;;19.40;43.10;;;;;;5051673;28;19925;-64
2022/12/17 23:40:09;;;;;;;;;;;19.40;43.10;;;;;;5041195;28;19925;-65
2022/12/17 23:42:38;;;;;;;;;;;19.40;43.10;;;;;;5036969;28;19960;-65
2022/12/17 23:45:06;;;;;;;;;;;19.30;43.00;;;;;;5052100;28;19924;-66
2022/12/17 23:47:32;;;;;;;;;;;19.40;43.00;;;;;;5044388;28;19955;-62
2022/12/17 23:49:59;;;;;;;;;;;19.40;43.00;;;;;;5053399;28;19968;-62
2022/12/17 23:52:26;;;;;;;;;;;19.30;43.00;;;;;;5070000;28;19964;-64
2022/12/17 23:54:54;;;;;;;;;;;19.30;42.90;;;;;;5035731;28;20011;-64
2022/12/17 23:57:21;;;;;;;;;;;19.30;43.00;;;;;;5069531;28;19932;-66
2022/12/17 23:59:47;;;;;;;;;;;19.30;43.00;;;;;;5050833;28;19933;-65
